Time;durP1;ratioP1;P1;durP2;ratioP2;P2;SDS_P1;SDS_P2;PMS_P1;PMS_P2;Temp;Humidity;BMP_temperature;BMP_pressure;BME280_temperature;BME280_humidity;BME280_pressure;Samples;Min_cycle;Max_cycle;Signal;HPM_P1;HPM_P2
2022/09/21 00:01:59;;;;;;;3.95;2.78;;;11.50;99.90;;;10.73;100.00;102094.28;5073797;23;20387;-73
2022/09/21 00:04:02;;;;;;;4.20;3.20;;;11.50;99.90;;;10.83;100.00;102110.25;5073862;23;20002;-73
2022/09/21 00:06:11;;;;;;;5.50;3.40;;;11.50;99.90;;;10.86;100.00;102116.13;5099242;23;20057;-73
2022/09/21 00:08:13;;;;;;;4.63;3.05;;;11.50;99.90;;;10.67;100.00;102086.03;5099695;23;20039;-73
2022/09/21 00:10:15;;;;;;;5.50;3.28;;;11.50;99.90;;;10.80;100.00;102113.13;5099632;23;20426;-73
2022/09/21 00:12:16;;;;;;;4.80;3.30;;;11.50;99.90;;;10.74;100.00;102097.78;5100012;23;20040;-73
2022/09/21 00:14:18;;;;;;;4.97;3.10;;;11.50;99.90;;;10.72;100.00;102097.06;5073730;23;20034;-73
2022/09/21 00:16:20;;;;;;;5.65;3.28;;;11.40;99.90;;;10.66;100.00;102093.13;5073369;23;20012;-73
2022/09/21 00:18:22;;;;;;;5.15;3.17;;;11.40;99.90;;;10.69;100.00;102099.97;5099849;23;20036;-73
2022/09/21 00:20:24;;;;;;;4.63;2.90;;;11.40;99.90;;;10.57;100.00;102094.69;5072968;23;20442;-73
2022/09/21 00:22:25;;;;;;;3.75;2.33;;;11.30;99.90;;;10.65;100.00;102117.84;5073626;23;20069;-73
2022/09/21 00:24:26;;;;;;;4.25;2.70;;;11.30;99.90;;;10.61;100.00;102118.19;5099533;23;20434;-72
2022/09/21 00:26:27;;;;;;;3.28;2.70;;;11.30;99.90;;;10.51;100.00;102103.09;5073618;23;20002;-72
2022/09/21 00:28:28;;;;;;;3.67;2.85;;;11.30;99.90;;;10.36;100.00;102092.94;5073582;23;20006;-73
2022/09/21 00:30:29;;;;;;;4.78;3.20;;;11.20;99.90;;;10.40;100.00;102107.53;5073667;23;20340;-72
2022/09/21 00:32:32;;;;;;;5.47;3.38;;;11.20;99.90;;;10.46;100.00;102120.25;5073374;23;20006;-72
2022/09/21 00:34:33;;;;;;;4.25;2.70;;;11.10;99.90;;;10.44;100.00;102123.03;5097285;23;20026;-73
2022/09/21 00:36:34;;;;;;;5.55;4.10;;;11.10;99.90;;;10.33;100.00;102114.28;5073677;23;20041;-73
2022/09/21 00:38:36;;;;;;;6.93;3.88;;;11.00;99.90;;;10.31;100.00;102114.38;5099281;23;20076;-73
2022/09/21 00:40:37;;;;;;;5.97;3.22;;;11.00;99.90;;;10.21;100.00;102107.34;5073649;23;20016;-73
2022/09/21 00:42:38;;;;;;;5.05;3.05;;;11.00;99.90;;;10.10;100.00;102088.81;5073494;23;20029;-72
2022/09/21 00:44:41;;;;;;;4.22;3.30;;;11.00;99.90;;;10.27;100.00;102112.97;5099622;23;20001;-73
2022/09/21 00:46:44;;;;;;;6.87;3.97;;;11.00;99.90;;;10.22;100.00;102103.72;5099642;23;20060;-72
2022/09/21 00:48:45;;;;;;;5.47;4.13;;;10.90;99.90;;;10.21;100.00;102102.06;5073651;23;20713;-73
2022/09/21 00:50:53;;;;;;;5.22;4.03;;;10.90;99.90;;;10.14;100.00;102091.16;5073053;23;20006;-72
2022/09/21 00:52:57;;;;;;;5.65;3.45;;;10.90;99.90;;;10.14;100.00;102098.22;5099432;23;20012;-73
2022/09/21 00:55:02;;;;;;;5.93;3.40;;;10.90;99.90;;;10.14;100.00;102098.22;5073659;23;20006;-73
2022/09/21 00:57:04;;;;;;;4.43;3.05;;;10.90;99.90;;;10.15;100.00;102095.47;5073557;23;20348;-73
2022/09/21 00:59:06;;;;;;;5.28;3.20;;;10.90;99.90;;;10.12;100.00;102100.13;5073330;23;20006;-73
2022/09/21 01:01:10;;;;;;;5.18;3.55;;;10.90;99.90;;;10.13;100.00;102107.91;5073240;23;20048;-73
2022/09/21 01:03:12;;;;;;;3.65;3.05;;;10.80;99.90;;;10.00;100.00;102081.63;5073830;23;20013;-73
2022/09/21 01:05:13;;;;;;;4.53;3.17;;;10.80;99.90;;;10.15;100.00;102105.19;5098972;23;20002;-73
2022/09/21 01:07:20;;;;;;;6.50;3.25;;;10.80;99.90;;;9.96;100.00;102084.66;5099094;23;20029;-73
2022/09/21 01:09:21;;;;;;;3.80;3.10;;;10.70;99.90;;;10.03;100.00;102097.22;5099120;23;20009;-74
2022/09/21 01:12:04;;;;;;;5.40;3.00;;;10.70;99.90;;;10.06;100.00;102100.59;5073274;23;20061;-73
2022/09/21 01:14:55;;;;;;;5.90;2.85;;;10.70;99.90;;;9.97;100.00;102110.88;5073070;23;20014;-72
2022/09/21 01:17:22;;;;;;;5.35;3.00;;;10.70;99.90;;;9.93;100.00;102109.44;5099263;23;20005;-73
2022/09/21 01:20:05;;;;;;;5.53;3.55;;;10.60;99.90;;;9.77;100.00;102079.09;5074505;23;20006;-72
2022/09/21 01:22:19;;;;;;;6.28;4.95;;;10.60;99.90;;;9.71;100.00;102069.88;5076885;23;20010;-73
2022/09/21 01:24:37;;;;;;;6.55;4.45;;;10.60;99.90;;;9.93;100.00;102101.53;5073257;23;20017;-72
2022/09/21 01:26:55;;;;;;;8.00;4.35;;;10.60;99.90;;;9.94;100.00;102095.31;5099215;23;20333;-73
2022/09/21 01:29:28;;;;;;;5.88;3.88;;;10.60;99.90;;;9.89;100.00;102092.19;5099382;23;20318;-73
2022/09/21 01:31:42;;;;;;;8.18;4.45;;;10.60;99.90;;;9.68;100.00;102058.72;5024915;23;20016;-73
2022/09/21 01:33:53;;;;;;;8.70;5.28;;;10.60;99.90;;;9.82;100.00;102076.97;5055615;23;20017;-73
2022/09/21 01:36:00;;;;;;;7.63;5.28;;;10.60;99.90;;;9.93;100.00;102093.63;5098660;23;20005;-73
2022/09/21 01:38:06;;;;;;;8.27;5.03;;;10.60;99.90;;;9.77;100.00;102072.03;5073300;23;20429;-73
2022/09/21 01:40:38;;;;;;;6.78;4.85;;;10.60;99.90;;;9.80;100.00;102074.44;5097453;23;20040;-73
2022/09/21 01:42:42;;;;;;;8.00;5.45;;;10.60;99.90;;;9.86;100.00;102094.22;5093275;23;20013;-73
2022/09/21 01:44:46;;;;;;;7.00;4.80;;;10.60;99.90;;;9.95;100.00;102101.41;5073073;23;20002;-73
2022/09/21 01:46:51;;;;;;;6.07;4.93;;;10.60;99.90;;;9.94;100.00;102103.22;5097116;23;20377;-73
2022/09/21 01:48:58;;;;;;;5.60;4.53;;;10.60;99.90;;;9.78;100.00;102081.63;5097475;23;20445;-73
2022/09/21 01:51:05;;;;;;;8.70;5.10;;;10.60;99.90;;;9.87;100.00;102096.75;5097014;23;20012;-73
2022/09/21 01:53:20;;;;;;;8.27;5.63;;;10.60;99.90;;;9.80;100.00;102090.25;5073440;23;20009;-73
2022/09/21 01:55:39;;;;;;;8.30;6.13;;;10.60;99.90;;;9.81;100.00;102091.94;5097620;23;20016;-72
2022/09/21 01:57:59;;;;;;;8.50;5.57;;;10.60;99.90;;;9.97;100.00;102112.69;5098744;23;20009;-73
2022/09/21 02:00:01;;;;;;;6.05;5.30;;;10.60;99.90;;;9.85;100.00;102090.75;5098502;23;20017;-73
2022/09/21 02:02:14;;;;;;;6.85;5.43;;;10.60;99.90;;;9.84;100.00;102091.72;5097582;23;20005;-73
2022/09/21 02:04:15;;;;;;;12.23;5.20;;;10.60;99.90;;;9.91;100.00;102106.09;5098335;23;20005;-73
2022/09/21 02:06:18;;;;;;;5.57;4.65;;;10.60;99.90;;;9.89;100.00;102104.50;5098901;23;20446;-72
2022/09/21 02:08:19;;;;;;;8.02;5.57;;;10.50;99.90;;;9.86;100.00;102095.06;5097207;23;20002;-73
2022/09/21 02:10:47;;;;;;;6.43;4.57;;;10.60;99.90;;;9.79;100.00;102090.38;5098825;23;20087;-72
2022/09/21 02:12:52;;;;;;;7.95;5.50;;;10.50;99.90;;;9.78;100.00;102092.19;5097501;23;20005;-72
2022/09/21 02:14:56;;;;;;;6.40;4.80;;;10.50;99.90;;;9.79;100.00;102093.88;5096872;23;20041;-73
2022/09/21 02:17:26;;;;;;;9.32;6.30;;;10.50;99.90;;;9.79;100.00;102098.28;5097208;23;20016;-72
2022/09/21 02:20:17;;;;;;;6.45;5.13;;;10.40;99.90;;;9.76;100.00;102088.00;5052772;23;20009;-72
2022/09/21 02:22:50;;;;;;;7.68;5.45;;;10.40;99.90;;;9.76;100.00;102104.66;5092493;23;20024;-73
2022/09/21 02:25:15;;;;;;;8.73;5.57;;;10.40;99.90;;;9.59;100.00;102065.56;5098631;23;20008;-73
2022/09/21 02:27:37;;;;;;;9.82;5.95;;;10.40;99.90;;;9.77;100.00;102101.03;5098628;23;20006;-73
2022/09/21 02:30:24;;;;;;;8.60;5.80;;;10.40;99.90;;;9.67;100.00;102084.25;5098619;23;20053;-73
2022/09/21 02:32:41;;;;;;;8.98;5.85;;;10.40;99.90;;;9.54;100.00;102069.50;5000601;23;20089;-73
2022/09/21 02:34:51;;;;;;;9.65;6.20;;;10.40;99.90;;;9.56;100.00;102065.78;4984679;23;20098;-73
2022/09/21 02:37:09;;;;;;;9.15;6.10;;;10.40;99.90;;;9.54;100.00;102065.06;5017098;23;20033;-73
2022/09/21 02:39:27;;;;;;;8.10;6.05;;;10.40;99.90;;;9.61;100.00;102076.84;5075160;23;20009;-73
2022/09/21 02:42:00;;;;;;;8.90;6.40;;;10.40;99.90;;;9.56;100.00;102072.88;5075040;23;20005;-73
2022/09/21 02:44:10;;;;;;;10.35;6.00;;;10.40;99.90;;;9.71;100.00;102108.56;5058964;23;20022;-73
2022/09/21 02:46:53;;;;;;;8.30;5.75;;;10.40;99.90;;;9.48;100.00;102057.63;5072167;23;20088;-73
2022/09/21 02:49:01;;;;;;;10.18;5.90;;;10.40;99.90;;;9.66;100.00;102100.19;5098377;23;20005;-73
2022/09/21 02:51:12;;;;;;;9.40;6.07;;;10.30;99.90;;;9.45;100.00;102071.88;5073177;23;20009;-73
2022/09/21 02:53:29;;;;;;;8.68;6.90;;;10.30;99.90;;;9.51;100.00;102082.91;5098551;23;20430;-73
2022/09/21 02:55:32;;;;;;;9.93;5.72;;;10.30;99.90;;;9.48;100.00;102073.44;5072924;23;20034;-73
2022/09/21 02:57:35;;;;;;;10.38;6.22;;;10.30;99.90;;;9.47;100.00;102082.28;5098587;23;20080;-73
2022/09/21 02:59:36;;;;;;;8.25;5.95;;;10.30;99.90;;;9.32;100.00;102068.50;5072705;23;20060;-73
2022/09/21 03:01:40;;;;;;;9.25;6.03;;;10.20;99.90;;;9.54;100.00;102103.75;5072618;23;20018;-73
2022/09/21 03:03:41;;;;;;;8.13;5.38;;;10.20;99.90;;;9.36;100.00;102077.84;5072689;23;20017;-73
2022/09/21 03:05:45;;;;;;;9.65;6.70;;;10.20;99.90;;;9.33;100.00;102064.06;5097913;23;20064;-72
2022/09/21 03:07:46;;;;;;;;;;;10.20;99.90;;;9.42;100.00;102081.81;5073108;23;20002;-73
2022/09/21 03:09:49;;;;;;;9.88;6.03;;;10.20;99.90;;;9.40;100.00;102074.03;5072358;23;19969;-73
2022/09/21 03:11:51;;;;;;;9.05;7.15;;;10.20;99.90;;;9.26;100.00;102054.94;5098344;23;20012;-73
2022/09/21 03:13:52;;;;;;;7.47;5.82;;;10.10;99.90;;;9.32;100.00;102059.75;5072412;23;20066;-73
2022/09/21 03:16:02;;;;;;;7.32;6.13;;;10.20;99.90;;;9.43;100.00;102071.16;5098654;23;20005;-72
2022/09/21 03:18:05;;;;;;;9.77;6.70;;;10.20;99.90;;;9.37;100.00;102055.00;5074328;23;20061;-72
2022/09/21 03:20:06;;;;;;;9.52;6.47;;;10.20;99.90;;;9.56;100.00;102081.59;5099442;23;20006;-73
2022/09/21 03:22:08;;;;;;;7.75;6.45;;;10.20;99.90;;;9.38;100.00;102056.66;5100125;23;20488;-72
2022/09/21 03:24:08;;;;;;;9.77;7.03;;;10.20;99.90;;;9.42;100.00;102061.59;5100072;23;20446;-73
2022/09/21 03:26:09;;;;;;;12.80;6.47;;;10.20;99.90;;;9.49;100.00;102071.66;5073949;23;20013;-72
2022/09/21 03:28:12;;;;;;;9.02;6.32;;;10.20;99.90;;;9.46;100.00;102062.19;5098639;23;20001;-73
2022/09/21 03:30:13;;;;;;;9.93;6.88;;;10.20;99.90;;;9.51;100.00;102073.22;5074058;23;20013;-72
2022/09/21 03:32:14;;;;;;;8.57;7.32;;;10.20;99.90;;;9.56;100.00;102072.88;5098446;23;20006;-72
2022/09/21 03:34:15;;;;;;;14.45;7.68;;;10.20;99.90;;;9.44;100.00;102050.91;5085798;23;20078;-73
2022/09/21 03:36:16;;;;;;;8.40;6.90;;;10.20;99.90;;;9.36;100.00;102042.75;5098526;23;20089;-72
2022/09/21 03:38:19;;;;;;;10.13;7.88;;;10.20;99.90;;;9.38;100.00;102040.84;5099833;23;20334;-73
2022/09/21 03:40:28;;;;;;;11.82;7.82;;;10.20;99.90;;;9.55;100.00;102076.44;5099755;23;20008;-73
2022/09/21 03:42:29;;;;;;;7.47;6.22;;;10.20;99.90;;;9.41;100.00;102046.72;5099698;23;20012;-73
2022/09/21 03:44:30;;;;;;;10.60;7.68;;;10.20;99.90;;;9.38;100.00;102041.69;5099852;23;20006;-73
2022/09/21 03:46:34;;;;;;;10.38;7.10;;;10.20;99.90;;;9.48;100.00;102047.09;5099958;23;20006;-73
2022/09/21 03:48:34;;;;;;;10.52;6.80;;;10.20;99.90;;;9.45;100.00;102047.34;5074085;23;20036;-73
2022/09/21 03:50:37;;;;;;;8.48;6.45;;;10.20;99.90;;;9.50;100.00;102060.97;5097977;23;20009;-73
2022/09/21 03:52:38;;;;;;;9.32;6.95;;;10.20;99.90;;;9.48;100.00;102057.63;5099711;23;20012;-73
2022/09/21 03:54:39;;;;;;;11.82;7.50;;;10.20;99.90;;;9.41;100.00;102040.63;5099801;23;20036;-73
2022/09/21 03:56:39;;;;;;;9.68;7.47;;;10.20;99.90;;;9.38;100.00;102048.75;5099705;23;20006;-73
2022/09/21 03:58:40;;;;;;;10.57;7.75;;;10.20;99.90;;;9.35;100.00;102030.53;5098167;23;20013;-73
2022/09/21 04:00:41;;;;;;;10.80;7.25;;;10.10;99.90;;;9.27;100.00;102019.75;5100130;23;20342;-73
2022/09/21 04:02:42;;;;;;;12.20;7.35;;;10.10;99.90;;;9.47;100.00;102052.50;5097843;23;20493;-73
2022/09/21 04:04:43;;;;;;;9.10;6.65;;;10.10;99.90;;;9.46;100.00;102049.03;5099402;23;20006;-73
2022/09/21 04:06:45;;;;;;;13.10;7.28;;;10.10;99.90;;;9.32;100.00;102038.69;5097918;23;20013;-72
2022/09/21 04:08:45;;;;;;;9.63;6.90;;;10.10;99.90;;;9.20;100.00;102027.28;5099679;23;20082;-73
2022/09/21 04:10:46;;;;;;;11.73;7.88;;;10.10;99.90;;;9.33;100.00;102048.25;5099545;23;20002;-72
2022/09/21 04:12:48;;;;;;;10.73;8.25;;;10.10;99.90;;;9.38;100.00;102056.66;5098805;23;20037;-73
2022/09/21 04:14:48;;;;;;;11.95;7.78;;;10.10;99.90;;;9.28;100.00;102038.09;5099753;23;20017;-73
2022/09/21 04:16:51;;;;;;;11.38;7.70;;;10.00;99.90;;;9.30;100.00;102030.91;5098204;23;20438;-73
2022/09/21 04:18:52;;;;;;;11.02;7.32;;;10.00;99.90;;;9.20;100.00;102026.47;5099482;23;20029;-73
2022/09/21 04:20:53;;;;;;;13.10;7.45;;;10.10;99.90;;;9.26;100.00;102045.25;5097794;23;20005;-73
2022/09/21 04:22:54;;;;;;;10.13;8.07;;;10.00;99.90;;;9.31;100.00;102058.09;5122559;23;20457;-73
2022/09/21 04:24:55;;;;;;;10.40;7.50;;;10.00;99.90;;;9.31;100.00;102055.44;5099217;23;20009;-73
2022/09/21 04:26:56;;;;;;;9.20;7.50;;;10.00;99.90;;;9.19;100.00;102040.56;5099469;23;20001;-72
2022/09/21 04:28:58;;;;;;;9.75;6.82;;;10.00;99.90;;;9.24;100.00;102057.69;5098238;23;20476;-73
2022/09/21 04:30:58;;;;;;;9.13;6.97;;;9.90;99.90;;;9.20;100.00;102064.13;5099466;23;20385;-72
2022/09/21 04:32:59;;;;;;;10.30;7.80;;;9.90;99.90;;;9.20;100.00;102065.97;5099463;23;20009;-73
2022/09/21 04:35:02;;;;;;;9.63;6.90;;;9.90;99.90;;;9.07;100.00;102046.75;5098728;23;20021;-73
2022/09/21 04:37:08;;;;;;;11.57;7.22;;;9.90;99.90;;;9.20;100.00;102063.31;5099598;23;20033;-72
2022/09/21 04:39:09;;;;;;;12.02;8.48;;;9.90;99.90;;;9.04;100.00;102050.47;5073188;23;20478;-74
2022/09/21 04:41:10;;;;;;;12.82;7.82;;;9.80;99.90;;;8.95;100.00;102031.88;5073380;23;20017;-73
2022/09/21 04:43:11;;;;;;;10.88;7.55;;;9.80;99.90;;;9.03;100.00;102046.13;5073554;23;20059;-73
2022/09/21 04:45:12;;;;;;;13.75;8.00;;;9.80;99.90;;;8.93;100.00;102042.50;5073103;23;20010;-73
2022/09/21 04:47:14;;;;;;;9.68;7.65;;;9.80;99.90;;;9.08;100.00;102074.78;5048890;23;20061;-73
2022/09/21 04:49:15;;;;;;;12.77;7.63;;;9.80;99.90;;;9.04;100.00;102066.25;5099100;23;20044;-73
2022/09/21 04:51:16;;;;;;;12.05;7.57;;;9.80;99.90;;;9.01;100.00;102063.00;5099259;23;20013;-73
2022/09/21 04:53:17;;;;;;;11.73;7.53;;;9.70;99.90;;;8.98;100.00;102065.88;5073260;23;20014;-73
2022/09/21 04:55:19;;;;;;;10.02;7.15;;;9.70;99.90;;;8.96;100.00;102065.16;5099484;23;20060;-73
2022/09/21 04:57:20;;;;;;;12.73;7.75;;;9.70;99.90;;;8.88;100.00;102057.81;5073577;23;20080;-73
2022/09/21 04:59:20;;;;;;;10.50;7.95;;;9.70;99.90;;;8.81;100.00;102043.44;5099217;23;20029;-72
2022/09/21 05:01:21;;;;;;;10.13;8.02;;;9.60;99.90;;;8.83;100.00;102052.03;5099205;23;20040;-73
2022/09/21 05:03:24;;;;;;;9.57;7.15;;;9.60;99.90;;;8.77;100.00;102050.72;5073258;23;20006;-73
2022/09/21 05:05:25;;;;;;;11.38;8.55;;;9.60;99.90;;;8.66;100.00;102032.22;5098867;23;20012;-73
2022/09/21 05:07:26;;;;;;;12.20;8.48;;;9.60;99.90;;;8.80;100.00;102061.00;5099113;23;20453;-73
2022/09/21 05:11:46;;;;;;;9.15;7.82;;;9.60;99.90;;;8.76;100.00;102056.91;5099066;23;20043;-73
2022/09/21 05:13:47;;;;;;;11.10;8.20;;;9.60;99.90;;;8.76;100.00;102056.06;5049172;23;20022;-73
2022/09/21 05:15:48;;;;;;;13.20;9.05;;;9.60;99.90;;;8.89;100.00;102081.38;5099120;23;20012;-73
2022/09/21 05:17:49;;;;;;;10.25;8.40;;;9.60;99.90;;;8.72;100.00;102042.28;5098553;23;20006;-73
2022/09/21 05:19:52;;;;;;;12.02;8.40;;;9.60;99.90;;;8.89;100.00;102077.91;5098951;23;20009;-73
2022/09/21 05:21:53;;;;;;;11.93;8.60;;;9.60;99.90;;;8.71;100.00;102045.91;5098990;23;20005;-73
2022/09/21 05:23:53;;;;;;;11.13;9.05;;;9.50;99.90;;;8.82;100.00;102080.16;5098930;23;20064;-73
2022/09/21 05:25:56;;;;;;;9.88;8.55;;;9.50;99.90;;;8.84;100.00;102078.22;5072896;23;20041;-73
2022/09/21 05:27:57;;;;;;;13.02;8.02;;;9.50;99.90;;;8.79;100.00;102072.47;5073447;23;20006;-73
2022/09/21 05:29:58;;;;;;;13.40;8.70;;;9.50;99.90;;;8.64;100.00;102054.31;5072900;23;20518;-73
2022/09/21 05:32:13;;;;;;;10.30;8.48;;;9.50;99.90;;;8.80;100.00;102087.31;5098744;23;20077;-73
2022/09/21 05:34:26;;;;;;;;;;;9.50;99.90;;;8.71;100.00;102080.09;5085118;23;20033;-73
2022/09/21 05:37:18;;;;;;;11.15;7.72;;;9.50;99.90;;;8.71;100.00;102082.72;5097449;23;19904;-73
2022/09/21 05:39:20;;;;;;;12.00;8.80;;;9.50;99.90;;;8.67;100.00;102077.78;5081840;23;20015;-73
2022/09/21 05:41:21;;;;;;;12.90;8.48;;;9.40;99.90;;;8.54;100.00;102059.41;5097228;23;20009;-73
2022/09/21 05:43:23;;;;;;;13.25;8.68;;;9.40;99.90;;;8.69;100.00;102089.06;5098852;23;20014;-73
2022/09/21 05:45:24;;;;;;;15.80;8.88;;;9.40;99.90;;;8.67;100.00;102081.25;5098346;23;20345;-73
2022/09/21 05:48:24;;;;;;;13.68;9.35;;;9.40;99.90;;;8.64;100.00;102076.22;5099145;23;20330;-73
2022/09/21 05:50:52;;;;;;;11.50;8.77;;;9.40;99.90;;;8.52;100.00;102060.47;5077466;23;20005;-73
2022/09/21 05:53:36;;;;;;;12.93;9.65;;;9.40;99.90;;;8.62;100.00;102082.53;5096873;23;20544;-73
2022/09/21 05:55:57;;;;;;;11.10;8.88;;;9.30;99.90;;;8.46;100.00;102060.91;5098700;23;20081;-72
2022/09/21 05:58:44;;;;;;;13.48;9.40;;;9.30;99.90;;;8.62;100.00;102093.91;5098761;23;20010;-73
2022/09/21 06:01:30;;;;;;;12.52;8.80;;;9.30;99.90;;;8.59;100.00;102086.25;5053048;23;20009;-73
2022/09/21 06:03:34;;;;;;;12.85;9.90;;;9.30;99.90;;;8.51;100.00;102079.84;5097440;23;20013;-73
2022/09/21 06:05:35;;;;;;;13.63;9.65;;;9.30;99.90;;;8.58;100.00;102087.19;5097023;23;20076;-73
2022/09/21 06:07:36;;;;;;;13.27;10.13;;;9.30;99.90;;;8.53;100.00;102077.94;5098852;23;20012;-73
2022/09/21 06:09:37;;;;;;;10.95;9.35;;;9.30;99.90;;;8.51;100.00;102075.41;5097275;23;20006;-73
2022/09/21 06:11:39;;;;;;;14.02;9.27;;;9.30;99.90;;;8.65;100.00;102098.94;5098640;23;20011;-73
2022/09/21 06:13:40;;;;;;;13.70;9.88;;;9.40;99.90;;;8.59;100.00;102073.09;5098639;23;20013;-73
2022/09/21 06:15:41;;;;;;;11.95;9.27;;;9.30;99.90;;;8.66;100.00;102092.72;5098614;23;20009;-74
2022/09/21 06:17:42;;;;;;;15.38;10.15;;;9.40;99.90;;;8.69;100.00;102095.13;5097161;23;20017;-74
2022/09/21 06:19:43;;;;;;;12.30;9.27;;;9.40;99.90;;;8.70;100.00;102091.56;5096535;23;20017;-74
2022/09/21 06:21:44;;;;;;;12.52;9.40;;;9.40;99.90;;;8.60;100.00;102073.94;5072749;23;20010;-74
2022/09/21 06:23:45;;;;;;;14.00;9.85;;;9.40;99.90;;;8.71;100.00;102090.63;5121686;23;20012;-74
2022/09/21 06:25:53;;;;;;;13.18;10.30;;;9.50;99.90;;;8.77;100.00;102097.22;5096742;23;20001;-74
2022/09/21 06:27:54;;;;;;;14.27;9.93;;;9.50;99.90;;;8.65;100.00;102070.03;5097033;23;20013;-74
2022/09/21 06:29:55;;;;;;;12.20;9.07;;;9.50;99.90;;;8.64;100.00;102070.13;5122044;23;20005;-74
2022/09/21 06:31:56;;;;;;;16.42;9.90;;;9.50;99.90;;;8.78;100.00;102091.84;5096654;23;20064;-74
2022/09/21 06:33:57;;;;;;;12.45;10.15;;;9.60;99.90;;;8.76;100.00;102080.59;5098061;23;20017;-74
2022/09/21 06:35:59;;;;;;;14.73;9.50;;;9.60;99.90;;;8.82;100.00;102084.56;5098539;23;20067;-74
2022/09/21 06:38:05;;;;;;;10.82;8.90;;;9.60;99.90;;;8.98;100.00;102103.56;5072543;23;20033;-74
2022/09/21 06:40:07;;;;;;;15.10;9.88;;;9.70;99.90;;;8.82;100.00;102072.25;5098546;23;20422;-74
2022/09/21 06:42:07;;;;;;;12.13;9.63;;;9.70;99.90;;;9.00;100.00;102095.53;5072610;23;20079;-74
2022/09/21 06:44:09;;;;;;;15.23;10.15;;;9.70;99.90;;;9.07;100.00;102099.41;5072595;23;20022;-74
2022/09/21 06:46:09;;;;;;;16.83;10.60;;;9.80;99.90;;;9.07;100.00;102083.59;5098422;23;20402;-74
2022/09/21 06:48:10;;;;;;;13.10;9.35;;;9.80;99.90;;;9.10;100.00;102084.22;5098368;23;20004;-73
2022/09/21 06:50:11;;;;;;;14.40;10.25;;;9.90;99.90;;;9.26;100.00;102104.97;5098121;23;20001;-74
2022/09/21 06:52:12;;;;;;;11.60;9.70;;;9.90;99.90;;;9.31;100.00;102111.59;5098384;23;20040;-74
2022/09/21 06:54:13;;;;;;;13.02;9.70;;;10.00;99.90;;;9.13;100.00;102073.47;5047809;23;20014;-74
2022/09/21 06:56:14;;;;;;;11.73;9.63;;;10.00;99.90;;;9.22;100.00;102074.56;5098555;23;20001;-74
2022/09/21 06:58:15;;;;;;;12.50;8.77;;;10.10;99.90;;;9.31;100.00;102076.53;5072489;23;20002;-74
2022/09/21 07:00:16;;;;;;;11.88;8.73;;;10.10;99.90;;;9.46;100.00;102096.44;5097020;23;20136;-74
2022/09/21 07:02:17;;;;;;;14.55;10.48;;;10.20;99.90;;;9.44;100.00;102087.78;5096844;23;20049;-74
2022/09/21 07:04:20;;;;;;;15.18;9.30;;;10.20;99.90;;;9.43;100.00;102075.59;5098065;23;20434;-74
2022/09/21 07:06:20;;;;;;;11.63;9.75;;;10.30;99.90;;;9.40;100.00;102062.66;5098297;23;20006;-74
2022/09/21 07:08:22;;;;;;;15.05;8.98;;;10.40;99.90;;;9.46;100.00;102054.28;5098546;23;20420;-74
2022/09/21 07:10:24;;;;;;;11.35;9.57;;;10.40;99.90;;;9.54;100.00;102057.16;5072322;23;20006;-73
2022/09/21 07:12:27;;;;;;;11.90;8.93;;;10.40;99.90;;;9.58;100.00;102063.91;5072274;23;20006;-74
2022/09/21 07:14:28;;;;;;;15.63;10.45;;;10.50;99.90;;;9.81;100.00;102083.19;5098472;23;20105;-74
2022/09/21 07:16:29;;;;;;;12.90;8.85;;;10.60;99.90;;;9.73;100.00;102068.00;5098086;23;20005;-74
2022/09/21 07:18:30;;;;;;;16.13;9.80;;;10.60;99.90;;;9.73;100.00;102073.25;5098245;23;20001;-74
2022/09/21 07:20:31;;;;;;;10.75;8.80;;;10.60;99.90;;;9.84;100.00;102075.06;5071818;23;20009;-74
2022/09/21 07:22:33;;;;;;;13.32;10.02;;;10.60;99.90;;;9.88;100.00;102072.06;5096684;23;20080;-74
2022/09/21 07:24:34;;;;;;;11.85;9.82;;;10.70;99.90;;;9.94;100.00;102070.75;5072551;23;20026;-74
2022/09/21 07:26:36;;;;;;;11.98;9.00;;;10.80;99.90;;;10.09;100.00;102092.44;5072404;23;20006;-74
2022/09/21 07:28:37;;;;;;;12.10;9.00;;;10.80;99.90;;;10.11;100.00;102082.59;5098170;23;20430;-74
2022/09/21 07:30:39;;;;;;;12.80;8.82;;;10.80;99.90;;;10.14;100.00;102074.50;5072388;23;20025;-74
2022/09/21 07:32:41;;;;;;;13.30;10.00;;;10.90;99.90;;;10.21;100.00;102071.25;5048347;23;20011;-74
2022/09/21 07:34:42;;;;;;;11.23;8.27;;;10.90;99.90;;;10.12;100.00;102048.22;5089549;23;20450;-74
2022/09/21 07:36:43;;;;;;;12.32;8.45;;;11.00;99.90;;;10.35;100.00;102075.44;5096617;23;20013;-74
2022/09/21 07:38:44;;;;;;;11.02;8.68;;;11.10;99.90;;;10.39;100.00;102069.78;5098216;23;20500;-74
2022/09/21 07:40:45;;;;;;;12.10;8.52;;;11.10;99.90;;;10.41;100.00;102064.38;5098197;23;20015;-74
2022/09/21 07:42:46;;;;;;;9.90;8.35;;;11.20;99.90;;;10.39;100.00;102053.13;5098122;23;20005;-74
2022/09/21 07:44:47;;;;;;;10.40;7.43;;;11.30;99.90;;;10.41;100.00;102045.94;5096811;23;20009;-74
2022/09/21 07:46:48;;;;;;;11.32;8.45;;;11.30;99.90;;;10.50;100.00;102051.31;5098209;23;20429;-74
2022/09/21 07:48:53;;;;;;;8.05;6.93;;;11.40;99.90;;;10.67;100.00;102076.31;5098072;23;20008;-74
2022/09/21 07:51:03;;;;;;;11.75;8.40;;;11.40;99.90;;;10.71;100.00;102072.47;5096832;23;20068;-74
2022/09/21 07:53:04;;;;;;;11.45;8.27;;;11.50;99.90;;;10.74;100.00;102066.09;5098228;23;20032;-74
2022/09/21 07:55:08;;;;;;;9.70;7.45;;;11.50;99.90;;;10.68;100.00;102046.34;5071968;23;20010;-74
2022/09/21 07:59:31;;;;;;;10.50;7.60;;;11.70;99.90;;;10.99;100.00;102079.00;5096878;23;20016;-74
2022/09/21 08:01:39;;;;;;;15.60;9.30;;;11.70;99.90;;;11.05;100.00;102067.94;5074455;23;20086;-74
2022/09/21 08:03:40;;;;;;;12.30;8.65;;;11.80;99.90;;;11.05;100.00;102060.81;5098442;23;20013;-74
2022/09/21 08:05:40;;;;;;;11.88;9.00;;;11.90;99.90;;;11.00;100.00;102039.25;5099438;23;20008;-74
2022/09/21 08:07:41;;;;;;;10.23;7.45;;;12.00;99.90;;;11.30;100.00;102072.00;5098365;23;20005;-74
2022/09/21 08:09:42;;;;;;;10.98;8.30;;;12.00;99.90;;;11.23;100.00;102049.72;5122786;23;20428;-74
2022/09/21 08:11:45;;;;;;;10.85;8.60;;;12.10;99.90;;;11.34;100.00;102055.78;5099612;23;20001;-74
2022/09/21 08:13:47;;;;;;;12.15;8.35;;;12.20;99.90;;;11.36;100.00;102031.84;5099053;23;20029;-74
2022/09/21 08:16:00;;;;;;;11.60;7.82;;;12.30;99.90;;;11.58;100.00;102063.44;5098257;23;20111;-74
2022/09/21 08:18:05;;;;;;;10.23;7.60;;;12.40;99.90;;;11.60;100.00;102053.56;5098144;23;20009;-74
2022/09/21 08:20:07;;;;;;;10.15;7.68;;;12.40;99.90;;;11.60;100.00;102045.63;5097740;23;20045;-74
2022/09/21 08:22:08;;;;;;;12.38;7.95;;;12.50;99.90;;;11.83;100.00;102065.66;5122850;23;20016;-74
2022/09/21 08:24:09;;;;;;;9.85;7.28;;;12.60;99.90;;;11.86;100.00;102068.03;5097920;23;20407;-75
2022/09/21 08:26:17;;;;;;;10.55;7.07;;;12.70;99.90;;;11.96;100.00;102068.94;5099432;23;20006;-74
2022/09/21 08:28:18;;;;;;;10.32;7.57;;;12.70;99.90;;;12.04;100.00;102069.09;5097688;23;20064;-74
2022/09/21 08:30:19;;;;;;;8.02;6.32;;;12.80;99.90;;;12.11;100.00;102080.84;5099488;23;20006;-74
2022/09/21 08:32:20;;;;;;;14.32;7.95;;;12.90;99.90;;;12.14;100.00;102077.94;5099606;23;20001;-74
2022/09/21 08:34:22;;;;;;;10.10;7.22;;;12.90;99.90;;;12.11;100.00;102067.63;5097521;23;20013;-74
2022/09/21 08:36:24;;;;;;;8.60;6.78;;;13.00;99.90;;;12.29;100.00;102077.53;5099355;23;20008;-74
2022/09/21 08:38:26;;;;;;;10.60;7.97;;;13.10;99.90;;;12.41;100.00;102079.13;5099462;23;20002;-74
2022/09/21 08:40:28;;;;;;;7.97;6.57;;;13.20;99.90;;;12.48;100.00;102081.09;5099365;23;20005;-74
2022/09/21 08:42:49;;;;;;;7.55;6.15;;;13.20;99.90;;;12.60;100.00;102082.63;5099192;23;20008;-74
2022/09/21 08:45:05;;;;;;;9.32;7.07;;;13.30;99.90;;;12.60;100.00;102072.03;5099288;23;20496;-75
2022/09/21 08:47:20;;;;;;;7.72;5.65;;;13.40;99.90;;;12.79;100.00;102089.78;5074332;23;20006;-74
2022/09/21 08:49:26;;;;;;;10.20;6.47;;;13.50;99.90;;;12.78;100.00;102067.75;5073096;23;20033;-75